Terminal Aerodrome Forecast
Issued by NWS Paducah, KY

Home | Current Version | Previous Version | Text Only | Print | Product List | Glossary Off
Versions: 1 2 3 4 5 6 7 8 9 10 11 12 13 14 15 16

000
FTUS43 KPAH 241720
TAFPAH
TAF
KPAH 241720Z 2418/2518 18012G20KT P6SM SCT050
     FM242200 17010G18KT P6SM BKN040
      TEMPO 2503/2507 3SM TSRA BKN015CB
     FM250700 18013KT 5SM -SHRA BR BKN025
     FM251400 20012KT P6SM SCT030 BKN100=

USA.gov is the U.S. government's official web portal to all federal, state and local government web resources and services.